createdAt,value
2023-11-18T00:39:36.756Z,5.20
2023-11-18T00:46:59.383Z,4.60
2023-11-18T00:50:15.292Z,3.80
2023-11-18T00:54:14.750Z,4.60
2023-11-18T00:57:54.389Z,4.90
2023-11-18T01:01:14.712Z,4.40
2023-11-18T01:04:53.931Z,4.60
2023-11-18T01:08:33.759Z,4.10
2023-11-18T01:12:15.649Z,4.10
2023-11-18T02:14:07.253Z,6.40
2023-11-18T06:00:22.982Z,11.90
2023-11-18T06:02:57.834Z,12.20
2023-11-18T06:05:27.772Z,11.70
2023-11-18T06:07:56.671Z,12.20
2023-11-18T06:10:26.365Z,12.80
2023-11-18T06:12:56.392Z,13.30
2023-11-18T06:15:26.149Z,11.30
2023-11-18T06:17:57.362Z,13.60
2023-11-18T06:20:26.191Z,13.90
2023-11-18T06:22:54.943Z,14.80
2023-11-18T06:25:27.553Z,13.30
2023-11-18T06:27:56.353Z,15.80
2023-11-18T06:30:25.190Z,14.40
2023-11-18T06:32:53.931Z,16.60
2023-11-18T06:35:23.130Z,19.40
2023-11-18T06:37:52.086Z,15.00
2023-11-18T06:40:23.547Z,16.40
2023-11-18T06:42:52.459Z,15.90
2023-11-18T06:45:23.734Z,16.30
2023-11-18T06:47:52.634Z,16.20
2023-11-18T06:50:25.933Z,17.10
2023-11-18T06:52:57.238Z,14.20
2023-11-18T06:55:28.398Z,12.90
2023-11-18T06:57:58.035Z,12.70
2023-11-18T07:00:29.617Z,13.70
2023-11-18T07:02:59.224Z,15.20
2023-11-18T07:05:28.116Z,13.70
2023-11-18T07:07:57.427Z,15.10
2023-11-18T07:10:27.145Z,14.60
2023-11-18T07:12:56.384Z,17.30
2023-11-18T07:15:25.307Z,17.30
2023-11-18T07:17:56.871Z,14.50
2023-11-18T07:20:25.927Z,18.40
2023-11-18T07:22:55.763Z,16.40
2023-11-18T07:25:24.542Z,19.30
2023-11-18T07:27:53.306Z,16.80
2023-11-18T07:30:22.184Z,16.70
2023-11-18T07:32:52.564Z,18.10
2023-11-18T07:35:21.326Z,18.10
2023-11-18T07:37:50.571Z,16.50
2023-11-18T07:40:23.779Z,15.90
2023-11-18T07:42:52.443Z,15.50
2023-11-18T07:45:21.256Z,17.20
2023-11-18T07:47:52.495Z,18.20
2023-11-18T07:50:22.811Z,17.90
2023-11-18T07:52:52.244Z,20.20
2023-11-18T07:55:21.113Z,20.80
2023-11-18T07:57:49.791Z,16.30
2023-11-18T08:00:19.322Z,19.40
2023-11-18T08:02:48.463Z,14.60
2023-11-18T08:05:18.585Z,23.00
2023-11-18T08:07:47.256Z,20.10
2023-11-18T08:10:20.847Z,17.60
2023-11-18T08:12:49.991Z,19.50
2023-11-18T08:15:20.358Z,16.80
2023-11-18T08:17:50.746Z,17.20
2023-11-18T08:20:25.425Z,21.50
2023-11-18T08:22:54.729Z,20.20
2023-11-18T08:25:23.830Z,16.90
2023-11-18T08:27:53.014Z,15.00
2023-11-18T08:30:22.422Z,16.80
2023-11-18T08:32:51.201Z,17.40
2023-11-18T08:35:20.294Z,14.60
2023-11-18T08:37:49.732Z,16.00
2023-11-18T08:40:27.418Z,15.90
2023-11-18T08:42:57.910Z,15.20
2023-11-18T08:45:31.345Z,15.40
2023-11-18T08:48:09.857Z,14.60
2023-11-18T08:50:42.460Z,14.20
2023-11-18T08:53:14.571Z,14.90
2023-11-18T08:55:53.329Z,13.90
2023-11-18T08:58:25.429Z,14.00
2023-11-18T09:01:15.964Z,17.50
2023-11-18T09:03:50.489Z,14.90
2023-11-18T09:06:27.801Z,12.10
2023-11-18T09:08:59.661Z,13.90
2023-11-18T09:11:34.352Z,16.10
2023-11-18T09:14:05.721Z,14.20
2023-11-18T09:16:40.084Z,15.10
2023-11-18T09:19:09.577Z,11.60
2023-11-18T09:21:38.607Z,14.10
2023-11-18T09:24:13.478Z,13.40
2023-11-18T09:26:45.670Z,14.30
2023-11-18T09:29:16.155Z,13.70
2023-11-18T09:31:51.604Z,13.70
2023-11-18T09:34:28.770Z,9.50
2023-11-18T09:36:57.753Z,15.30
2023-11-18T09:39:39.554Z,11.80
2023-11-18T09:42:13.095Z,34.10
2023-11-18T09:44:42.491Z,19.80
2023-11-18T09:47:17.877Z,14.60
2023-11-18T09:49:58.002Z,17.10
2023-11-18T09:52:28.329Z,16.30
2023-11-18T09:55:21.450Z,17.00
2023-11-18T09:58:01.454Z,17.60
2023-11-18T10:00:35.021Z,16.20
2023-11-18T10:03:04.872Z,12.70
2023-11-18T10:05:35.393Z,15.00
2023-11-18T10:08:07.411Z,14.40
2023-11-18T10:10:47.238Z,14.90
2023-11-18T10:13:26.033Z,14.00
2023-11-18T10:15:55.135Z,15.40
2023-11-18T10:18:25.189Z,15.80
2023-11-18T10:20:58.630Z,14.30
2023-11-18T10:23:29.621Z,15.50
2023-11-18T10:26:02.799Z,15.70
2023-11-18T10:28:39.277Z,12.80
2023-11-18T10:31:11.281Z,15.90
2023-11-18T10:33:45.096Z,13.10
2023-11-18T10:36:25.798Z,14.70
2023-11-18T10:38:57.514Z,15.50
2023-11-18T10:41:26.907Z,20.00
2023-11-18T10:44:16.239Z,15.20
2023-11-18T10:46:56.228Z,20.30
2023-11-18T10:49:25.968Z,15.40
2023-11-18T10:51:56.690Z,17.40
2023-11-18T10:54:27.927Z,20.40
2023-11-18T10:56:59.995Z,16.90
2023-11-18T10:59:28.808Z,13.30
2023-11-18T11:01:59.554Z,16.00
2023-11-18T11:04:44.236Z,13.20
2023-11-18T11:07:15.854Z,15.60
2023-11-18T11:09:47.579Z,11.90
2023-11-18T11:12:19.464Z,14.70
2023-11-18T11:15:01.499Z,12.80
2023-11-18T11:17:32.570Z,15.40
2023-11-18T11:20:19.374Z,13.30
2023-11-18T11:23:12.596Z,16.90
2023-11-18T11:26:36.398Z,12.40
2023-11-18T11:29:35.961Z,11.60
2023-11-18T11:32:29.675Z,9.60
2023-11-18T11:35:09.848Z,11.90
2023-11-18T11:37:39.574Z,12.60
2023-11-18T11:40:11.978Z,11.00
2023-11-18T11:42:44.256Z,9.10
2023-11-18T11:45:21.706Z,10.10
2023-11-18T11:47:53.231Z,10.30
2023-11-18T11:50:33.954Z,9.80
2023-11-18T11:53:18.395Z,15.60
2023-11-18T11:56:06.615Z,13.10
2023-11-18T11:58:40.196Z,15.20
2023-11-18T12:01:26.602Z,13.20
2023-11-18T12:03:59.678Z,11.30
2023-11-18T12:06:29.493Z,11.80
2023-11-18T12:08:58.557Z,9.60
2023-11-18T12:11:31.134Z,9.80
2023-11-18T12:14:14.786Z,11.20
2023-11-18T12:17:22.812Z,11.30
2023-11-18T12:19:57.938Z,8.50
2023-11-18T12:22:36.403Z,9.90
2023-11-18T12:25:07.787Z,11.20
2023-11-18T12:27:42.535Z,12.10
2023-11-18T12:30:17.285Z,12.50
2023-11-18T12:33:02.693Z,11.50
2023-11-18T12:35:45.845Z,14.70
2023-11-18T12:38:58.232Z,12.70
2023-11-18T12:41:39.826Z,10.60
2023-11-18T12:44:20.710Z,18.60
2023-11-18T12:47:16.411Z,18.10
2023-11-18T12:49:51.526Z,10.90
2023-11-18T12:52:20.720Z,12.10
2023-11-18T12:54:57.793Z,11.80
2023-11-18T12:57:33.268Z,14.40
2023-11-18T13:00:02.539Z,13.40
2023-11-18T13:02:34.081Z,11.90
2023-11-18T13:05:10.942Z,13.60
2023-11-18T13:07:41.359Z,17.20
2023-11-18T13:10:10.910Z,14.30
2023-11-18T13:12:40.769Z,14.90
2023-11-18T13:15:11.177Z,16.00
2023-11-18T13:17:42.402Z,18.50
2023-11-18T13:20:16.291Z,13.60
2023-11-18T13:22:48.304Z,13.60
2023-11-18T13:25:19.018Z,13.60
2023-11-18T13:27:48.146Z,13.20
2023-11-18T13:30:19.033Z,12.90
2023-11-18T13:32:51.085Z,13.90
2023-11-18T13:35:21.809Z,14.20
2023-11-18T13:37:52.279Z,14.90
2023-11-18T13:40:21.246Z,12.20
2023-11-18T13:42:50.187Z,12.40
2023-11-18T13:45:30.978Z,16.50
2023-11-18T13:48:06.501Z,14.70
2023-11-18T13:50:39.174Z,15.80
2023-11-18T13:53:08.524Z,12.80
2023-11-18T13:55:40.366Z,13.00
2023-11-18T13:58:12.128Z,13.20
2023-11-18T14:00:42.328Z,13.40
2023-11-18T14:03:13.676Z,11.80
2023-11-18T14:05:48.391Z,15.10
2023-11-18T14:08:21.375Z,14.80
2023-11-18T14:11:02.162Z,16.40
2023-11-18T14:13:36.379Z,14.40
2023-11-18T14:16:11.259Z,14.10
2023-11-18T14:18:43.452Z,14.60
2023-11-18T14:21:15.682Z,14.60
2023-11-18T14:23:44.609Z,13.50
2023-11-18T14:26:13.753Z,13.60
2023-11-18T14:28:44.178Z,16.20
2023-11-18T14:31:12.919Z,16.20
2023-11-18T14:33:41.718Z,14.00
2023-11-18T14:36:11.261Z,13.40
2023-11-18T14:38:40.113Z,13.60
2023-11-18T14:41:09.477Z,11.10
2023-11-18T14:43:38.564Z,13.50
2023-11-18T14:46:09.583Z,13.50
2023-11-18T14:48:39.003Z,12.70
2023-11-18T14:51:08.805Z,12.60
2023-11-18T14:53:39.100Z,12.80
2023-11-18T14:56:08.780Z,12.40
2023-11-18T14:58:37.802Z,16.60
2023-11-18T15:01:10.315Z,12.10
2023-11-18T15:03:39.146Z,11.70
2023-11-18T15:06:11.759Z,12.80
2023-11-18T15:08:45.917Z,14.90
2023-11-18T15:11:24.638Z,14.70
